Time;durP1;ratioP1;P1;durP2;ratioP2;P2;SDS_P1;SDS_P2;PMS_P1;PMS_P2;Temp;Humidity;BMP_temperature;BMP_pressure;BME280_temperature;BME280_humidity;BME280_pressure;Samples;Min_cycle;Max_cycle;Signal;HPM_P1;HPM_P2
2023/08/09 00:02:02;;;;;;;6.90;4.13;;;23.70;55.00;;;;;;5015713;28;20176;-71
2023/08/09 00:04:27;;;;;;;5.87;3.50;;;23.70;54.90;;;;;;5015646;28;20176;-72
2023/08/09 00:06:53;;;;;;;6.07;4.47;;;23.70;54.90;;;;;;5015594;28;20223;-72
2023/08/09 00:09:20;;;;;;;9.17;3.90;;;23.70;55.00;;;;;;5015462;28;20199;-72
2023/08/09 00:11:46;;;;;;;3.97;3.50;;;23.70;55.00;;;;;;5015437;28;20203;-72
2023/08/09 00:14:11;;;;;;;5.57;3.40;;;23.70;54.90;;;;;;5015484;28;20415;-72
2023/08/09 00:16:37;;;;;;;6.47;4.27;;;23.70;54.90;;;;;;5015408;28;20177;-71
2023/08/09 00:19:03;;;;;;;6.00;3.93;;;23.60;54.90;;;;;;5015318;28;20185;-71
2023/08/09 00:21:29;;;;;;;6.90;3.90;;;23.70;55.00;;;;;;5015349;28;20426;-71
2023/08/09 00:23:55;;;;;;;4.00;2.90;;;23.60;54.90;;;;;;5015342;28;20263;-71
2023/08/09 00:26:20;;;;;;;4.73;3.63;;;23.60;54.90;;;;;;5015231;28;20421;-72
2023/08/09 00:28:46;;;;;;;4.67;3.10;;;23.60;54.90;;;;;;5015381;28;20547;-71
2023/08/09 00:31:12;;;;;;;5.77;3.87;;;23.60;54.90;;;;;;5015056;28;20287;-71
2023/08/09 00:33:37;;;;;;;5.10;2.90;;;23.60;54.90;;;;;;5015119;28;20271;-72
2023/08/09 00:36:03;;;;;;;5.50;3.20;;;23.60;54.90;;;;;;5015033;28;20180;-72
2023/08/09 00:38:29;;;;;;;5.17;3.10;;;23.60;55.40;;;;;;5015193;28;20180;-71
2023/08/09 00:40:55;;;;;;;6.30;3.70;;;23.70;55.00;;;;;;5014795;28;20239;-72
2023/08/09 00:43:20;;;;;;;4.77;3.27;;;23.60;54.90;;;;;;5014914;28;20716;-71
2023/08/09 00:45:47;;;;;;;5.50;3.63;;;23.60;54.90;;;;;;5014886;28;20180;-71
2023/08/09 00:48:13;;;;;;;4.10;3.30;;;23.60;54.90;;;;;;5014714;28;20172;-69
2023/08/09 00:50:42;;;;;;;5.90;3.50;;;23.60;54.90;;;;;;5014740;28;21012;-71
2023/08/09 00:53:08;;;;;;;4.00;2.10;;;23.60;54.90;;;;;;5015030;28;20597;-71
2023/08/09 00:55:33;;;;;;;5.27;3.77;;;23.60;54.90;;;;;;5014704;28;20434;-71
2023/08/09 00:57:59;;;;;;;4.17;2.60;;;23.60;54.90;;;;;;5014673;28;20177;-71
2023/08/09 01:00:24;;;;;;;4.30;2.77;;;23.60;54.90;;;;;;4996974;28;20661;-72
2023/08/09 01:02:50;;;;;;;3.50;2.93;;;23.60;54.90;;;;;;5014554;28;20176;-71
2023/08/09 01:05:16;;;;;;;5.53;3.47;;;23.60;54.90;;;;;;5014950;28;20637;-71
2023/08/09 01:07:45;;;;;;;4.30;3.23;;;23.60;54.90;;;;;;5014744;28;20544;-71
2023/08/09 01:10:10;;;;;;;4.33;3.00;;;23.60;54.90;;;;;;4996715;28;20489;-70
2023/08/09 01:12:41;;;;;;;5.37;3.90;;;23.60;55.00;;;;;;5014571;28;21022;-71
2023/08/09 01:15:09;;;;;;;4.67;2.83;;;23.60;54.90;;;;;;5014464;28;20157;-71
2023/08/09 01:17:36;;;;;;;5.10;3.53;;;23.60;54.90;;;;;;5014557;28;20423;-71
2023/08/09 01:20:04;;;;;;;4.23;3.20;;;23.60;54.90;;;;;;5014155;28;20470;-71
2023/08/09 01:22:33;;;;;;;3.80;3.03;;;23.60;54.90;;;;;;5014202;28;20418;-71
2023/08/09 01:25:06;;;;;;;4.10;3.47;;;23.60;54.90;;;;;;5014155;28;20446;-71
2023/08/09 01:27:33;;;;;;;4.47;2.93;;;23.60;54.90;;;;;;5014112;28;20400;-72
2023/08/09 01:30:00;;;;;;;5.37;3.47;;;23.60;54.90;;;;;;5014013;28;20538;-72
2023/08/09 01:32:27;;;;;;;3.53;2.90;;;23.60;54.90;;;;;;5013896;28;21029;-71
2023/08/09 01:34:54;;;;;;;3.87;2.87;;;23.60;55.00;;;;;;5013984;28;20980;-72
2023/08/09 01:37:41;;;;;;;5.20;3.50;;;23.60;54.90;;;;;;5013946;28;20442;-71
2023/08/09 01:40:09;;;;;;;4.13;2.87;;;23.60;54.90;;;;;;5013696;28;20454;-72
2023/08/09 01:42:40;;;;;;;5.40;2.40;;;23.60;54.90;;;;;;5013793;28;20468;-72
2023/08/09 01:45:08;;;;;;;3.47;2.97;;;23.60;54.90;;;;;;5013761;28;20411;-72
2023/08/09 01:47:35;;;;;;;2.87;2.50;;;23.60;55.00;;;;;;5013990;28;21000;-72
2023/08/09 01:50:01;;;;;;;4.37;2.60;;;23.60;54.90;;;;;;4995928;28;20475;-72
2023/08/09 01:52:26;;;;;;;5.23;3.40;;;23.60;55.00;;;;;;5013805;28;20493;-72
2023/08/09 01:54:53;;;;;;;3.50;2.83;;;23.60;55.00;;;;;;5013524;28;20638;-71
2023/08/09 01:57:19;;;;;;;3.77;2.77;;;23.60;54.90;;;;;;5013568;28;20255;-71
2023/08/09 01:59:45;;;;;;;4.43;3.10;;;23.60;55.00;;;;;;5012845;28;20838;-72
2023/08/09 02:02:11;;;;;;;3.97;3.30;;;23.60;55.00;;;;;;5013451;28;20184;-71
2023/08/09 02:04:37;;;;;;;2.57;2.20;;;23.60;55.00;;;;;;4995854;28;20175;-71
2023/08/09 02:07:03;;;;;;;4.43;2.90;;;23.60;55.00;;;;;;5013658;28;20415;-71
2023/08/09 02:09:30;;;;;;;3.57;2.70;;;23.60;55.00;;;;;;5013319;28;20522;-72
2023/08/09 02:11:56;;;;;;;3.80;2.93;;;23.60;55.00;;;;;;5012897;28;20469;-71
2023/08/09 02:14:22;;;;;;;4.70;3.17;;;23.60;55.00;;;;;;5012760;28;20987;-72
2023/08/09 02:16:47;;;;;;;3.40;2.60;;;23.60;55.00;;;;;;5013271;28;20415;-71
2023/08/09 02:19:14;;;;;;;4.50;2.70;;;23.60;54.90;;;;;;5012470;28;20435;-72
2023/08/09 02:21:41;;;;;;;3.20;2.43;;;23.60;55.50;;;;;;5012072;28;20184;-71
2023/08/09 02:24:08;;;;;;;5.13;2.93;;;23.60;54.90;;;;;;5013406;28;20782;-71
2023/08/09 02:26:34;;;;;;;3.23;2.93;;;23.60;55.00;;;;;;5013072;28;20416;-72
2023/08/09 02:29:00;;;;;;;7.10;2.17;;;23.60;54.90;;;;;;5011823;28;20468;-71
2023/08/09 02:31:27;;;;;;;4.77;3.47;;;23.60;54.90;;;;;;5012966;28;20200;-72
2023/08/09 02:33:53;;;;;;;3.10;2.47;;;23.60;54.90;;;;;;5012920;28;20515;-71
2023/08/09 02:36:18;;;;;;;3.80;2.50;;;23.60;54.90;;;;;;5013179;28;20495;-72
2023/08/09 02:38:44;;;;;;;3.10;2.23;;;23.60;55.00;;;;;;5012765;28;20183;-71
2023/08/09 02:41:09;;;;;;;3.73;3.00;;;23.60;55.00;;;;;;5012754;28;20192;-71
2023/08/09 02:43:35;;;;;;;3.57;2.70;;;23.60;55.00;;;;;;5013103;28;20539;-71
2023/08/09 02:46:01;;;;;;;4.40;2.70;;;23.60;55.00;;;;;;5012790;28;20255;-71
2023/08/09 02:48:26;;;;;;;3.87;2.67;;;23.60;54.90;;;;;;5012753;28;20218;-71
2023/08/09 02:50:52;;;;;;;3.40;2.40;;;23.60;55.00;;;;;;5012519;28;20204;-71
2023/08/09 02:53:18;;;;;;;2.60;2.10;;;23.60;55.00;;;;;;5012619;28;20168;-71
2023/08/09 02:55:44;;;;;;;3.30;2.43;;;23.60;55.00;;;;;;4994908;28;20534;-71
2023/08/09 02:58:10;;;;;;;3.80;2.70;;;23.60;54.90;;;;;;4994911;28;20415;-71
2023/08/09 03:00:36;;;;;;;2.63;2.20;;;23.60;55.00;;;;;;5012475;28;20188;-72
2023/08/09 03:03:05;;;;;;;3.03;2.10;;;23.60;55.00;;;;;;5012398;28;20419;-71
2023/08/09 03:05:31;;;;;;;4.00;3.20;;;23.60;54.90;;;;;;5012431;28;20176;-71
2023/08/09 03:07:57;;;;;;;3.10;2.10;;;23.50;54.80;;;;;;5012430;28;20491;-71
2023/08/09 03:10:23;;;;;;;3.80;2.60;;;23.50;54.80;;;;;;5011541;28;20434;-71
2023/08/09 03:12:49;;;;;;;3.80;2.47;;;23.50;54.90;;;;;;5012164;28;20626;-71
2023/08/09 03:15:16;;;;;;;3.27;2.70;;;23.50;54.80;;;;;;5012254;28;20527;-71
2023/08/09 03:17:42;;;;;;;3.17;2.20;;;23.50;54.80;;;;;;5012269;28;20418;-71
2023/08/09 03:20:15;;;;;;;3.70;2.33;;;23.50;54.80;;;;;;5012162;28;20612;-71
2023/08/09 03:22:44;;;;;;;2.83;2.50;;;23.50;54.90;;;;;;5012268;28;20404;-71
2023/08/09 03:25:11;;;;;;;2.87;2.37;;;23.50;54.90;;;;;;5012159;28;20916;-72
2023/08/09 03:27:37;;;;;;;2.87;2.57;;;23.50;54.90;;;;;;5012144;28;20411;-71
2023/08/09 03:30:08;;;;;;;3.23;2.40;;;23.50;54.90;;;;;;5012079;28;20811;-72
2023/08/09 03:32:34;;;;;;;2.97;2.60;;;23.50;54.90;;;;;;5012329;28;20188;-71
2023/08/09 03:35:00;;;;;;;2.83;2.27;;;23.50;54.90;;;;;;5012057;28;20498;-72
2023/08/09 03:37:26;;;;;;;4.03;2.90;;;23.50;54.90;;;;;;5012289;28;20418;-72
2023/08/09 03:39:51;;;;;;;2.97;2.13;;;23.50;54.90;;;;;;4994310;28;20819;-71
2023/08/09 03:42:17;;;;;;;3.27;2.33;;;23.50;54.90;;;;;;5012363;28;20660;-71
2023/08/09 03:44:42;;;;;;;4.37;2.33;;;23.50;54.90;;;;;;4994416;28;20168;-71
2023/08/09 03:47:08;;;;;;;2.93;2.10;;;23.50;54.90;;;;;;5011990;28;20176;-71
2023/08/09 03:49:34;;;;;;;3.40;2.60;;;23.60;55.00;;;;;;5011945;28;20615;-72
2023/08/09 03:51:59;;;;;;;2.33;2.10;;;23.50;54.90;;;;;;5011819;28;20199;-71
2023/08/09 03:54:25;;;;;;;3.10;2.30;;;23.50;54.90;;;;;;5011915;28;20169;-72
2023/08/09 03:56:51;;;;;;;2.77;2.17;;;23.50;54.90;;;;;;5011932;28;20242;-71
2023/08/09 03:59:17;;;;;;;3.13;2.17;;;23.50;54.90;;;;;;5011814;28;20192;-71
2023/08/09 04:01:42;;;;;;;2.53;2.33;;;23.50;54.90;;;;;;5011838;28;20172;-72
2023/08/09 04:04:08;;;;;;;3.10;2.17;;;23.50;54.90;;;;;;5011861;28;20256;-71
2023/08/09 04:06:33;;;;;;;2.37;1.90;;;23.50;54.90;;;;;;5012072;28;20172;-72
2023/08/09 04:08:59;;;;;;;3.10;2.50;;;23.50;54.90;;;;;;4977878;28;20605;-71
2023/08/09 04:11:25;;;;;;;2.70;2.33;;;23.50;54.90;;;;;;5011766;28;20620;-72
2023/08/09 04:13:50;;;;;;;2.30;1.83;;;23.50;54.90;;;;;;5011686;28;20216;-71
2023/08/09 04:16:16;;;;;;;2.30;1.80;;;23.50;54.90;;;;;;5011750;28;20188;-72
2023/08/09 04:18:41;;;;;;;2.80;2.53;;;23.50;54.90;;;;;;5011667;28;20199;-70
2023/08/09 04:21:07;;;;;;;2.30;2.00;;;23.50;54.90;;;;;;5011669;28;20627;-70
2023/08/09 04:23:33;;;;;;;4.27;2.50;;;23.50;54.90;;;;;;5014744;28;20657;-72
2023/08/09 04:26:00;;;;;;;4.00;2.33;;;23.50;54.90;;;;;;5015276;28;20268;-72
2023/08/09 04:28:26;;;;;;;2.40;2.00;;;23.50;54.90;;;;;;5015201;28;20414;-71
2023/08/09 04:30:52;;;;;;;2.57;2.00;;;23.50;54.90;;;;;;5015284;28;20427;-72
2023/08/09 04:33:18;;;;;;;2.60;2.07;;;23.50;54.90;;;;;;5015192;28;20161;-71
2023/08/09 04:35:44;;;;;;;2.57;1.80;;;23.50;54.90;;;;;;5015365;28;20434;-71
2023/08/09 04:38:09;;;;;;;2.90;2.30;;;23.50;55.10;;;;;;5014984;28;20176;-71
2023/08/09 04:40:36;;;;;;;2.40;2.00;;;23.50;54.90;;;;;;5015136;28;20266;-71
2023/08/09 04:43:02;;;;;;;2.47;2.00;;;23.50;54.90;;;;;;5014979;28;20690;-70
2023/08/09 04:45:28;;;;;;;2.77;2.03;;;23.50;54.80;;;;;;5014870;28;20493;-71
2023/08/09 04:47:54;;;;;;;2.77;2.07;;;23.50;54.90;;;;;;5014827;28;20443;-72
2023/08/09 04:50:23;;;;;;;2.80;1.80;;;23.50;54.90;;;;;;5014777;28;20727;-72
2023/08/09 04:52:49;;;;;;;2.40;1.90;;;23.50;54.90;;;;;;4997806;28;20203;-71
2023/08/09 04:55:15;;;;;;;2.50;2.00;;;23.50;54.90;;;;;;5014924;28;20415;-71
2023/08/09 04:57:41;;;;;;;2.60;2.00;;;23.50;54.90;;;;;;5014680;28;20419;-71
2023/08/09 05:00:10;;;;;;;1.90;1.60;;;23.50;54.90;;;;;;5014612;28;20481;-71
2023/08/09 05:02:37;;;;;;;3.60;2.13;;;23.50;54.90;;;;;;5014620;28;20164;-72
2023/08/09 05:05:07;;;;;;;2.50;2.10;;;23.50;54.90;;;;;;4996905;28;20427;-71
2023/08/09 05:07:33;;;;;;;2.63;2.43;;;23.50;54.80;;;;;;5014485;28;20411;-71
2023/08/09 05:10:00;;;;;;;2.73;2.00;;;23.50;54.90;;;;;;5014305;28;20439;-72
2023/08/09 05:12:25;;;;;;;2.20;1.97;;;23.50;54.90;;;;;;5014342;28;20451;-70
2023/08/09 05:14:51;;;;;;;5.10;2.50;;;23.50;54.90;;;;;;5014408;28;20411;-73
2023/08/09 05:17:16;;;;;;;3.40;2.23;;;23.50;54.90;;;;;;5014324;28;20200;-72
2023/08/09 05:19:42;;;;;;;2.37;1.97;;;23.50;54.90;;;;;;5014218;28;20255;-71
2023/08/09 05:22:07;;;;;;;3.93;1.77;;;23.50;54.90;;;;;;5014227;28;20176;-71
2023/08/09 05:24:33;;;;;;;2.90;1.93;;;23.50;54.90;;;;;;5014260;28;20259;-71
2023/08/09 05:26:58;;;;;;;2.20;1.80;;;23.50;54.90;;;;;;4996118;28;20207;-71
2023/08/09 05:29:24;;;;;;;2.30;2.10;;;23.50;54.90;;;;;;5014139;28;20239;-72
2023/08/09 05:31:50;;;;;;;2.20;1.87;;;23.50;54.90;;;;;;5014006;28;20669;-72
2023/08/09 05:34:15;;;;;;;2.97;2.10;;;23.50;54.90;;;;;;4994302;28;20172;-71
2023/08/09 05:36:41;;;;;;;1.70;1.50;;;23.50;55.40;;;;;;4996251;28;20318;-71
2023/08/09 05:39:08;;;;;;;2.80;1.80;;;23.50;54.90;;;;;;5013740;28;20220;-71
2023/08/09 05:41:34;;;;;;;2.47;1.90;;;23.50;54.90;;;;;;4994454;28;20214;-72
2023/08/09 05:43:59;;;;;;;2.20;1.60;;;23.50;54.80;;;;;;5012589;28;20558;-71
2023/08/09 05:46:25;;;;;;;2.60;1.77;;;23.50;54.90;;;;;;5015397;28;20506;-72
2023/08/09 05:48:51;;;;;;;3.67;2.00;;;23.50;54.90;;;;;;5021486;28;20180;-72
2023/08/09 05:51:16;;;;;;;2.07;1.87;;;23.50;54.90;;;;;;5020614;28;20231;-71
2023/08/09 05:53:42;;;;;;;2.47;2.03;;;23.50;54.90;;;;;;5022627;28;20187;-71
2023/08/09 05:56:07;;;;;;;1.80;1.40;;;23.50;54.90;;;;;;5021189;28;20180;-72
2023/08/09 05:58:33;;;;;;;2.40;1.63;;;23.50;54.90;;;;;;5005244;28;20246;-71
2023/08/09 06:00:59;;;;;;;2.13;1.73;;;23.50;54.90;;;;;;5021925;28;20196;-72
2023/08/09 06:03:25;;;;;;;2.47;1.67;;;23.50;54.90;;;;;;5021424;28;20413;-72
2023/08/09 06:05:51;;;;;;;2.50;1.87;;;23.50;54.90;;;;;;5023019;28;20164;-71
2023/08/09 06:08:16;;;;;;;2.00;1.80;;;23.50;54.90;;;;;;5027476;28;20518;-71
2023/08/09 06:10:42;;;;;;;2.27;1.63;;;23.50;54.90;;;;;;5032950;28;20196;-72
2023/08/09 06:13:07;;;;;;;2.33;1.73;;;23.50;54.90;;;;;;5022668;28;20200;-71
2023/08/09 06:15:33;;;;;;;2.50;1.43;;;23.50;54.80;;;;;;5013279;28;20172;-71
2023/08/09 06:17:59;;;;;;;2.10;1.90;;;23.50;54.90;;;;;;5013210;28;20183;-71
2023/08/09 06:20:27;;;;;;;2.17;1.57;;;23.50;54.90;;;;;;5013097;28;20279;-70
2023/08/09 06:22:53;;;;;;;2.70;1.90;;;23.50;54.90;;;;;;4996338;28;20615;-70
2023/08/09 06:25:19;;;;;;;2.20;1.80;;;23.50;54.80;;;;;;5011717;28;20426;-71
2023/08/09 06:27:44;;;;;;;2.47;1.90;;;23.50;54.80;;;;;;5013035;28;20180;-71
2023/08/09 06:30:11;;;;;;;1.60;1.50;;;23.50;54.90;;;;;;5012947;28;20296;-72
2023/08/09 06:32:37;;;;;;;2.50;1.60;;;23.50;54.90;;;;;;5012817;28;20199;-71
2023/08/09 06:35:04;;;;;;;1.93;1.50;;;23.50;54.80;;;;;;5012835;28;20411;-71
2023/08/09 06:37:30;;;;;;;2.13;1.37;;;23.50;54.90;;;;;;5012709;28;20177;-71
2023/08/09 06:39:55;;;;;;;2.60;1.57;;;23.50;54.90;;;;;;5012560;28;20948;-72
2023/08/09 06:42:21;;;;;;;1.80;1.50;;;23.50;54.80;;;;;;5012669;28;20168;-72
2023/08/09 06:44:47;;;;;;;1.60;1.50;;;23.50;54.90;;;;;;4994869;28;20255;-72
2023/08/09 06:47:12;;;;;;;4.80;1.80;;;23.50;54.90;;;;;;5012644;28;20525;-72
2023/08/09 06:49:38;;;;;;;1.80;1.50;;;23.50;54.90;;;;;;5012529;28;20290;-72
2023/08/09 06:52:04;;;;;;;2.10;1.43;;;23.50;54.90;;;;;;5012378;28;20669;-71
2023/08/09 06:54:30;;;;;;;1.70;1.30;;;23.50;54.90;;;;;;5012401;28;20238;-71
2023/08/09 06:56:55;;;;;;;2.00;1.60;;;23.50;54.90;;;;;;5012276;28;20490;-72
2023/08/09 06:59:21;;;;;;;2.10;1.73;;;23.50;54.90;;;;;;5012028;28;20275;-72
2023/08/09 07:01:48;;;;;;;1.80;1.60;;;23.50;54.90;;;;;;4993726;28;20207;-72
2023/08/09 07:04:15;;;;;;;1.93;1.43;;;23.50;54.90;;;;;;5012465;28;20647;-72
2023/08/09 07:06:40;;;;;;;1.80;1.50;;;23.50;54.90;;;;;;5011803;28;20486;-72
2023/08/09 07:09:06;;;;;;;1.80;1.60;;;23.50;54.90;;;;;;5012092;28;20467;-72
2023/08/09 07:11:32;;;;;;;3.80;2.23;;;23.50;54.90;;;;;;5012471;28;20227;-72
2023/08/09 07:13:58;;;;;;;1.70;1.50;;;23.50;55.00;;;;;;5012305;28;20495;-70
2023/08/09 07:16:24;;;;;;;2.03;1.67;;;23.50;54.90;;;;;;5011943;28;20544;-71
2023/08/09 07:18:50;;;;;;;3.13;1.97;;;23.50;54.90;;;;;;5012040;28;20414;-70
2023/08/09 07:21:16;;;;;;;1.60;1.50;;;23.50;55.00;;;;;;4994441;28;20634;-71
2023/08/09 07:23:41;;;;;;;1.80;1.50;;;23.50;55.00;;;;;;5012162;28;20182;-70
2023/08/09 07:26:07;;;;;;;2.23;1.77;;;23.50;55.00;;;;;;5012160;28;20419;-71
2023/08/09 07:28:32;;;;;;;2.13;1.20;;;23.50;55.00;;;;;;5012039;28;20648;-71
2023/08/09 07:30:58;;;;;;;2.03;1.27;;;23.50;55.00;;;;;;5011672;28;20227;-72
2023/08/09 07:33:24;;;;;;;2.77;1.50;;;23.50;55.10;;;;;;5012319;28;20524;-71
2023/08/09 07:35:49;;;;;;;2.40;1.60;;;23.50;55.00;;;;;;5012056;28;20582;-71
2023/08/09 07:38:16;;;;;;;3.13;1.73;;;23.50;55.00;;;;;;5012252;28;20630;-70
2023/08/09 07:40:42;;;;;;;2.43;1.77;;;23.50;55.00;;;;;;5011812;28;20207;-71
2023/08/09 07:43:07;;;;;;;2.40;1.57;;;23.50;55.00;;;;;;5011979;28;20407;-71
2023/08/09 07:45:33;;;;;;;2.70;2.40;;;23.50;55.00;;;;;;5011872;28;20172;-71
2023/08/09 07:47:59;;;;;;;2.10;1.40;;;23.50;55.00;;;;;;5011564;28;20242;-71
2023/08/09 07:50:25;;;;;;;2.80;1.73;;;23.60;55.10;;;;;;5010219;28;20200;-72
2023/08/09 07:52:51;;;;;;;2.53;1.40;;;23.60;55.10;;;;;;5010054;28;21005;-72
2023/08/09 07:55:17;;;;;;;1.80;1.50;;;23.60;55.10;;;;;;5010057;28;20212;-72
2023/08/09 07:57:43;;;;;;;2.10;1.77;;;23.60;55.10;;;;;;4994344;28;20415;-72
2023/08/09 08:00:17;;;;;;;2.10;1.67;;;23.60;55.10;;;;;;5013918;28;20454;-72
2023/08/09 08:02:43;;;;;;;1.77;1.43;;;23.60;55.10;;;;;;4996950;28;20426;-71
2023/08/09 08:05:13;;;;;;;2.40;1.60;;;23.60;55.20;;;;;;5015562;28;20415;-71
2023/08/09 08:07:39;;;;;;;1.70;1.50;;;23.60;55.20;;;;;;5015688;28;20415;-71
2023/08/09 08:10:08;;;;;;;1.80;1.50;;;23.60;55.20;;;;;;5015587;28;20450;-72
2023/08/09 08:12:38;;;;;;;2.10;1.70;;;23.60;55.20;;;;;;5015437;28;20929;-71
2023/08/09 08:15:05;;;;;;;1.40;1.20;;;23.60;55.20;;;;;;5015300;28;20435;-73
2023/08/09 08:17:31;;;;;;;2.30;1.60;;;23.60;55.10;;;;;;5014508;28;20510;-72
2023/08/09 08:19:57;;;;;;;2.03;1.47;;;23.70;55.20;;;;;;5015156;28;20434;-69
2023/08/09 08:22:22;;;;;;;2.30;1.70;;;23.60;55.10;;;;;;5015230;28;20423;-71
2023/08/09 08:24:48;;;;;;;2.60;1.30;;;23.70;55.20;;;;;;5014090;28;20188;-72
2023/08/09 08:27:14;;;;;;;3.13;1.60;;;23.70;55.40;;;;;;4997501;28;20622;-71
2023/08/09 08:29:39;;;;;;;2.07;1.47;;;23.70;55.10;;;;;;5015003;28;20200;-70
2023/08/09 08:32:05;;;;;;;2.57;1.80;;;23.70;55.20;;;;;;5014938;28;20196;-71
2023/08/09 08:34:31;;;;;;;2.20;1.60;;;23.70;55.10;;;;;;4996633;28;20179;-71
2023/08/09 08:37:01;;;;;;;1.90;1.40;;;23.70;55.10;;;;;;4997384;28;20192;-71
2023/08/09 08:39:29;;;;;;;2.90;1.80;;;23.70;55.10;;;;;;4997017;28;20443;-71
2023/08/09 08:41:56;;;;;;;1.50;1.40;;;23.70;55.10;;;;;;5015181;28;20446;-71
2023/08/09 08:44:24;;;;;;;2.03;1.40;;;23.70;55.10;;;;;;5014764;28;20967;-71
2023/08/09 08:46:51;;;;;;;2.20;1.70;;;23.70;55.10;;;;;;4995554;28;20450;-72
2023/08/09 08:49:24;;;;;;;1.70;1.30;;;23.70;55.60;;;;;;5012623;28;20508;-71
2023/08/09 08:51:54;;;;;;;1.90;1.40;;;23.70;55.10;;;;;;5013996;28;20454;-70
2023/08/09 08:54:21;;;;;;;2.50;1.63;;;23.80;55.10;;;;;;5014750;28;20412;-71
2023/08/09 08:56:48;;;;;;;3.00;1.90;;;23.80;55.10;;;;;;5014807;28;20443;-71
2023/08/09 08:59:15;;;;;;;1.70;1.50;;;23.80;55.10;;;;;;5014709;28;20830;-72
2023/08/09 09:01:42;;;;;;;2.00;1.20;;;23.80;55.10;;;;;;5014695;28;20404;-71
2023/08/09 09:04:08;;;;;;;1.63;1.53;;;23.80;55.10;;;;;;5014660;28;20411;-71
2023/08/09 09:06:34;;;;;;;2.60;1.33;;;23.80;55.10;;;;;;5014598;28;20927;-71
2023/08/09 09:08:59;;;;;;;2.83;1.57;;;23.80;55.10;;;;;;4996754;28;20188;-72
2023/08/09 09:11:25;;;;;;;1.63;1.30;;;23.80;55.10;;;;;;5014443;28;20188;-71
2023/08/09 09:13:51;;;;;;;1.70;1.50;;;23.80;55.10;;;;;;4996770;28;20180;-70
2023/08/09 09:16:19;;;;;;;2.03;1.43;;;23.80;55.10;;;;;;5014409;28;20630;-70
2023/08/09 09:18:47;;;;;;;2.47;1.50;;;23.80;55.10;;;;;;5013989;28;20407;-71
2023/08/09 09:21:14;;;;;;;1.30;1.17;;;23.80;55.70;;;;;;5014407;28;20422;-71
2023/08/09 09:23:40;;;;;;;1.67;1.30;;;23.80;55.10;;;;;;5013456;28;20435;-72
2023/08/09 09:26:18;;;;;;;1.40;1.10;;;23.80;55.10;;;;;;5014130;28;20970;-70
2023/08/09 09:28:48;;;;;;;2.20;1.30;;;23.80;55.10;;;;;;5013348;28;20179;-72
2023/08/09 09:31:18;;;;;;;1.90;1.27;;;23.80;55.10;;;;;;5013609;28;20426;-70
2023/08/09 09:33:49;;;;;;;1.80;1.40;;;23.80;55.10;;;;;;4996302;28;20427;-71
2023/08/09 09:36:17;;;;;;;1.50;1.20;;;23.80;55.10;;;;;;5013299;28;20986;-71
2023/08/09 09:38:44;;;;;;;2.60;1.50;;;23.90;55.20;;;;;;5013726;28;20837;-69
2023/08/09 09:41:10;;;;;;;1.90;1.30;;;23.90;55.20;;;;;;5013384;28;20528;-71
2023/08/09 09:43:41;;;;;;;2.37;1.87;;;23.90;55.20;;;;;;5012165;28;20437;-71
2023/08/09 09:46:24;;;;;;;1.30;1.10;;;23.90;55.20;;;;;;5013658;28;20779;-71
2023/08/09 09:49:00;;;;;;;1.90;1.30;;;23.90;55.20;;;;;;4995901;28;20787;-71
2023/08/09 09:51:26;;;;;;;2.70;1.40;;;23.90;55.20;;;;;;5013435;28;20461;-70
2023/08/09 09:53:52;;;;;;;1.83;1.23;;;23.90;55.20;;;;;;5014311;28;20987;-70
2023/08/09 09:56:19;;;;;;;2.30;1.47;;;23.90;55.20;;;;;;5013506;28;20494;-70
2023/08/09 09:58:45;;;;;;;3.10;1.50;;;23.90;55.20;;;;;;5013414;28;20168;-70
2023/08/09 10:01:15;;;;;;;2.50;1.47;;;23.90;55.20;;;;;;5013456;28;20412;-71
2023/08/09 10:03:43;;;;;;;2.60;1.67;;;23.90;55.20;;;;;;5013518;28;20410;-70
2023/08/09 10:06:20;;;;;;;1.70;1.50;;;23.90;55.10;;;;;;5013413;28;20784;-71
2023/08/09 10:08:49;;;;;;;1.80;1.10;;;23.90;55.20;;;;;;5019845;28;20426;-71
2023/08/09 10:11:15;;;;;;;2.60;1.30;;;23.90;55.20;;;;;;5032977;28;20776;-70
2023/08/09 10:13:41;;;;;;;1.70;1.50;;;23.90;55.20;;;;;;5032464;28;20403;-71
2023/08/09 10:16:10;;;;;;;3.00;1.70;;;23.90;55.10;;;;;;5033006;28;20819;-71
2023/08/09 10:18:40;;;;;;;2.63;1.57;;;23.90;55.10;;;;;;5032965;28;20402;-70
2023/08/09 10:21:08;;;;;;;3.20;1.90;;;23.90;55.10;;;;;;5032699;28;20418;-69
2023/08/09 10:23:34;;;;;;;6.50;2.43;;;23.90;55.10;;;;;;5032864;28;20463;-69
2023/08/09 10:25:59;;;;;;;2.03;1.50;;;23.90;55.10;;;;;;5032725;28;20410;-70
2023/08/09 10:28:47;;;;;;;1.50;1.37;;;23.90;55.10;;;;;;5032750;28;20210;-69
2023/08/09 10:31:13;;;;;;;3.07;1.30;;;24.00;55.20;;;;;;5032645;28;20170;-71
2023/08/09 10:34:06;;;;;;;3.10;1.23;;;23.90;55.10;;;;;;5032629;28;20469;-71
2023/08/09 10:36:33;;;;;;;3.80;1.50;;;24.00;55.20;;;;;;5032724;28;20402;-70
2023/08/09 10:39:14;;;;;;;3.13;1.50;;;23.90;55.10;;;;;;5032561;28;20831;-70
2023/08/09 10:41:53;;;;;;;1.97;1.20;;;24.00;55.30;;;;;;5032553;28;20461;-70
2023/08/09 10:44:34;;;;;;;2.00;1.30;;;23.90;55.20;;;;;;5032551;28;20495;-71
2023/08/09 10:47:06;;;;;;;2.80;1.40;;;24.00;55.80;;;;;;5032464;28;20391;-71
2023/08/09 10:49:53;;;;;;;3.87;1.80;;;24.00;55.20;;;;;;5032649;28;20427;-70
2023/08/09 10:52:20;;;;;;;1.73;1.20;;;24.00;55.30;;;;;;5003756;28;20504;-71
2023/08/09 10:54:48;;;;;;;2.47;1.40;;;24.00;55.20;;;;;;5011773;28;20407;-70
2023/08/09 10:57:16;;;;;;;1.57;1.17;;;24.00;55.30;;;;;;4994358;28;20415;-70
2023/08/09 10:59:43;;;;;;;1.70;1.20;;;24.00;55.20;;;;;;4994752;28;20447;-71
2023/08/09 11:02:10;;;;;;;2.07;1.40;;;24.00;55.20;;;;;;4994811;28;20462;-70
2023/08/09 11:04:36;;;;;;;1.87;1.07;;;24.00;55.20;;;;;;5010555;28;20489;-72
2023/08/09 11:07:02;;;;;;;1.60;1.23;;;24.00;55.20;;;;;;5011244;28;20403;-71
2023/08/09 11:09:32;;;;;;;1.60;1.07;;;24.00;55.20;;;;;;4994257;28;20457;-71
2023/08/09 11:11:58;;;;;;;1.87;1.40;;;24.00;55.20;;;;;;5012051;28;20457;-71
2023/08/09 11:14:24;;;;;;;2.43;1.03;;;24.00;55.20;;;;;;5011795;28;20419;-70
2023/08/09 11:16:51;;;;;;;2.10;1.03;;;24.00;55.20;;;;;;5012303;28;20411;-71
2023/08/09 11:19:21;;;;;;;1.63;1.07;;;24.00;55.20;;;;;;5012160;28;20936;-71
2023/08/09 11:21:49;;;;;;;1.37;1.27;;;24.00;55.20;;;;;;5012270;28;20912;-71
2023/08/09 11:24:17;;;;;;;1.57;1.00;;;24.00;55.20;;;;;;4994256;28;20518;-69
2023/08/09 11:26:55;;;;;;;1.97;1.30;;;24.00;55.30;;;;;;4994497;28;20509;-70
2023/08/09 11:29:25;;;;;;;1.50;1.00;;;24.00;55.20;;;;;;5011997;28;20434;-70
2023/08/09 11:31:53;;;;;;;2.00;1.20;;;24.00;55.20;;;;;;5011043;28;20455;-70
2023/08/09 11:34:20;;;;;;;2.37;1.60;;;24.00;55.20;;;;;;4993769;28;20429;-70
2023/08/09 11:36:49;;;;;;;1.50;1.07;;;24.00;55.20;;;;;;5012194;28;20753;-70
2023/08/09 11:39:15;;;;;;;1.70;1.30;;;24.00;55.10;;;;;;5011340;28;20435;-69
2023/08/09 11:41:42;;;;;;;1.57;1.30;;;24.00;55.20;;;;;;5011476;28;20426;-70
2023/08/09 11:44:09;;;;;;;1.10;1.00;;;24.00;55.10;;;;;;5011952;28;20414;-70
2023/08/09 11:46:34;;;;;;;1.50;1.10;;;24.10;55.20;;;;;;5012222;28;20419;-69
2023/08/09 11:49:04;;;;;;;1.67;1.10;;;24.00;55.10;;;;;;5011818;28;20534;-70
2023/08/09 11:51:32;;;;;;;1.30;1.10;;;24.10;55.20;;;;;;5011795;28;20199;-70
2023/08/09 11:53:58;;;;;;;1.30;1.00;;;24.00;55.10;;;;;;5011873;28;20434;-71
2023/08/09 11:56:24;;;;;;;1.47;1.00;;;24.10;55.10;;;;;;5011840;28;20412;-70
2023/08/09 11:58:54;;;;;;;1.20;1.00;;;24.10;55.10;;;;;;5011984;28;20179;-70
2023/08/09 12:01:25;;;;;;;1.40;1.10;;;24.10;55.10;;;;;;4994096;28;20184;-70
2023/08/09 12:03:52;;;;;;;4.63;1.80;;;24.10;55.10;;;;;;5010713;28;20427;-70
2023/08/09 12:06:33;;;;;;;1.60;1.10;;;24.10;55.10;;;;;;5010483;28;20426;-70
2023/08/09 12:08:59;;;;;;;1.63;1.13;;;24.00;55.00;;;;;;5009670;28;20928;-70
2023/08/09 12:11:24;;;;;;;1.60;1.00;;;24.00;55.00;;;;;;5009787;28;20459;-71
2023/08/09 12:13:50;;;;;;;1.77;1.10;;;24.10;55.10;;;;;;5009896;28;20169;-71
2023/08/09 12:16:15;;;;;;;1.37;1.13;;;24.10;55.60;;;;;;5010676;28;20168;-71
2023/08/09 12:18:41;;;;;;;1.10;0.97;;;24.00;55.00;;;;;;5011009;28;20269;-70
2023/08/09 12:21:08;;;;;;;1.53;0.93;;;24.10;55.00;;;;;;5011326;28;20729;-70
2023/08/09 12:23:36;;;;;;;1.40;1.10;;;24.10;55.00;;;;;;5011563;28;20176;-70
2023/08/09 12:26:03;;;;;;;2.17;1.07;;;24.00;54.90;;;;;;5011723;28;20469;-70
2023/08/09 12:28:29;;;;;;;1.60;1.10;;;24.00;55.00;;;;;;5011805;28;20458;-70
2023/08/09 12:30:55;;;;;;;2.00;1.00;;;24.00;55.00;;;;;;4993871;28;20427;-70
2023/08/09 12:33:20;;;;;;;1.50;1.20;;;24.00;54.90;;;;;;5011515;28;20461;-71
2023/08/09 12:35:46;;;;;;;1.40;0.93;;;24.00;54.90;;;;;;5010966;28;20181;-71
2023/08/09 12:38:12;;;;;;;3.13;1.10;;;24.00;54.90;;;;;;5011588;28;20186;-70
2023/08/09 12:40:38;;;;;;;1.60;1.37;;;24.00;54.90;;;;;;4993727;28;20251;-70
2023/08/09 12:43:04;;;;;;;1.20;1.10;;;24.00;54.90;;;;;;5012648;28;20435;-70
2023/08/09 12:45:30;;;;;;;1.40;1.03;;;24.00;54.90;;;;;;5014973;28;20236;-70
2023/08/09 12:47:55;;;;;;;1.37;0.90;;;24.00;54.90;;;;;;5014887;28;20775;-70